»·PEaware :: N503AM KBFI-KHQM

N503AM :: KBFI-KHQM

FLIGHT INFORMATION

Flight Status: Arrived
Operator: Privately registered:
United States
More flights under this callsign
Pilot: Gary H. (18965)
Aircraft: CESSNA 172 SKYHAWK
(C172)
More flights by this aircraft type
Origin: KBFI Boeing Field/King Co Intl
United States
Destination: KHQM Bowerman
United States
More flights between these airports :: More routes between these airports
Route: +KENT8 CARRO V27 OZALU
File this flight plan on PilotEdge
Remarks:
Altitude:
(Current/Filed)
4,000ft
Speed:
(Current/Filed)
110kts
Departed: 12-May-20 08:13 PM
Arrived: 12-May-20 09:04 PM
Distance/Time
Traveled:
74nm/0:51
Distance/Time
To Go:
Arrived

Flight Plot

Page will automatically refresh every two minutes.

Flight plan parsing failed; only flown route is shown


Map Options




Map Legend


Flown Route
Filed Route
Departure Airport
Arrival Airport
Navaid (VOR, NDB)
Fix

Horizontal Profiles

Position Reports

Time Latitude Longitude Heading Altitude Ground
Speed
12-May-20 19:50 47.520864 -122.297489 0 14ft 0kts
12-May-20 19:52 47.520864 -122.297489 0 14ft 0kts
12-May-20 19:53 47.520864 -122.297489 0 14ft 0kts
12-May-20 19:53 47.520864 -122.297489 0 14ft 0kts
12-May-20 19:55 47.520864 -122.297489 0 14ft 0kts
12-May-20 19:55 47.520864 -122.297489 0 14ft 0kts
12-May-20 19:56 47.520864 -122.297489 0 14ft 0kts
12-May-20 19:57 47.520864 -122.297489 0 14ft 0kts
12-May-20 19:58 47.520864 -122.297489 0 14ft 0kts
12-May-20 19:59 47.521012 -122.297281 81 14ft 0kts
12-May-20 20:00 47.521012 -122.297281 81 14ft 0kts
12-May-20 20:01 47.523211 -122.298246 329 14ft 29kts
12-May-20 20:02 47.531230 -122.305007 330 14ft 38kts
12-May-20 20:03 47.539635 -122.312110 317 16ft 11kts
12-May-20 20:04 47.539896 -122.312050 47 17ft 0kts
12-May-20 20:05 47.539896 -122.312050 47 17ft 0kts
12-May-20 20:06 47.539896 -122.312050 47 17ft 0kts
12-May-20 20:07 47.539896 -122.312050 47 17ft 0kts
12-May-20 20:08 47.539896 -122.312050 47 17ft 0kts
12-May-20 20:09 47.539896 -122.312050 47 17ft 0kts
12-May-20 20:10 47.539896 -122.312050 47 17ft 0kts
12-May-20 20:11 47.539896 -122.312050 47 17ft 0kts
12-May-20 20:12 47.537772 -122.309013 150 18ft 65kts
12-May-20 20:13 47.520277 -122.293437 149 730ft 90kts
12-May-20 20:14 47.499560 -122.275061 149 1368ft 96kts
12-May-20 20:15 47.477477 -122.256076 166 2005ft 97kts
12-May-20 20:16 47.461821 -122.283308 241 2614ft 100kts
12-May-20 20:17 47.451142 -122.321471 241 3312ft 97kts
12-May-20 20:18 47.441037 -122.358053 241 3975ft 97kts
12-May-20 20:19 47.429896 -122.397413 242 3980ft 105kts
12-May-20 20:20 47.418619 -122.436658 242 3994ft 101kts
12-May-20 20:21 47.407317 -122.475177 242 3991ft 102kts
12-May-20 20:22 47.395783 -122.513476 242 3982ft 102kts
12-May-20 20:23 47.384450 -122.551987 243 3973ft 102kts
12-May-20 20:24 47.372921 -122.590385 243 3964ft 102kts
12-May-20 20:25 47.361112 -122.628868 243 3954ft 103kts
12-May-20 20:26 47.349176 -122.667187 242 3948ft 103kts
12-May-20 20:27 47.337363 -122.705549 243 3968ft 100kts
12-May-20 20:28 47.326555 -122.742655 243 4043ft 100kts
12-May-20 20:29 47.315488 -122.780700 243 4040ft 101kts
12-May-20 20:30 47.304407 -122.818917 243 4035ft 101kts
12-May-20 20:31 47.293420 -122.856891 243 4029ft 100kts
12-May-20 20:32 47.282581 -122.894764 245 4022ft 100kts
12-May-20 20:33 47.272862 -122.933318 245 4015ft 100kts
12-May-20 20:34 47.262875 -122.971799 245 3992ft 100kts
12-May-20 20:35 47.252899 -123.010249 245 3985ft 100kts
12-May-20 20:36 47.242952 -123.048669 245 3977ft 100kts
12-May-20 20:37 47.233059 -123.087008 245 3969ft 100kts
12-May-20 20:38 47.222793 -123.125389 244 3960ft 100kts
12-May-20 20:39 47.212425 -123.163618 244 3951ft 100kts
12-May-20 20:40 47.201978 -123.202076 244 3942ft 101kts
12-May-20 20:41 47.191495 -123.240605 244 3932ft 101kts
12-May-20 20:42 47.180995 -123.279154 244 3922ft 101kts
12-May-20 20:43 47.170710 -123.317022 244 3973ft 98kts
12-May-20 20:44 47.160395 -123.355006 244 3963ft 101kts
12-May-20 20:45 47.150009 -123.393478 244 3951ft 101kts
12-May-20 20:46 47.140423 -123.432334 246 3964ft 100kts
12-May-20 20:47 47.129421 -123.470063 225 3793ft 102kts
12-May-20 20:48 47.109076 -123.499119 221 3086ft 103kts
12-May-20 20:49 47.089139 -123.526903 220 2880ft 92kts
12-May-20 20:50 47.070891 -123.552989 220 2865ft 91kts
12-May-20 20:51 47.053117 -123.578909 220 2891ft 87kts
12-May-20 20:52 47.035453 -123.605149 220 2880ft 92kts
12-May-20 20:53 47.017371 -123.632076 220 2866ft 92kts
12-May-20 20:54 47.006354 -123.665402 242 2644ft 93kts
12-May-20 20:55 47.000016 -123.702594 251 2133ft 92kts
12-May-20 20:56 46.995150 -123.737837 252 2094ft 86kts
12-May-20 20:57 46.991121 -123.773973 251 2086ft 91kts
12-May-20 20:58 46.988540 -123.806403 252 1976ft 78kts
12-May-20 20:59 46.983481 -123.837865 249 1444ft 78kts
12-May-20 21:00 46.980223 -123.868769 255 1051ft 69kts
12-May-20 21:01 46.976068 -123.897748 249 480ft 72kts
12-May-20 21:02 46.972605 -123.924863 254 102ft 64kts
12-May-20 21:03 46.972616 -123.933352 61 23ft 0kts

Navigation Log

Ident Type
Flight plan parsing failed, navigation log unavailable